Time;durP1;ratioP1;P1;durP2;ratioP2;P2;SDS_P1;SDS_P2;PMS_P1;PMS_P2;Temp;Humidity;BMP_temperature;BMP_pressure;BME280_temperature;BME280_humidity;BME280_pressure;Samples;Min_cycle;Max_cycle;Signal;HPM_P1;HPM_P2
2023/12/18 00:02:04;;;;;;;15.40;11.20;;;2.60;99.90;;;;;;5032541;28;20240;-66
2023/12/18 00:04:30;;;;;;;17.33;11.07;;;2.50;99.90;;;;;;5032616;28;20170;-67
2023/12/18 00:06:55;;;;;;;14.10;10.80;;;2.50;99.90;;;;;;5032312;28;20644;-66
2023/12/18 00:09:21;;;;;;;12.77;10.30;;;2.50;99.90;;;;;;5032640;28;20185;-66
2023/12/18 00:11:46;;;;;;;17.53;11.70;;;2.60;99.90;;;;;;5032860;28;20740;-67
2023/12/18 00:14:12;;;;;;;14.67;11.33;;;2.50;99.90;;;;;;5031730;28;20170;-68
2023/12/18 00:16:37;;;;;;;13.00;11.03;;;2.40;99.90;;;;;;5031368;28;20227;-68
2023/12/18 00:19:04;;;;;;;10.80;9.70;;;2.40;99.90;;;;;;5034990;28;20178;-67
2023/12/18 00:21:30;;;;;;;12.37;9.77;;;2.40;99.90;;;;;;5035276;28;20197;-68
2023/12/18 00:23:55;;;;;;;10.73;9.17;;;2.50;99.90;;;;;;5035479;28;20934;-67
2023/12/18 00:26:21;;;;;;;10.13;8.87;;;2.50;99.90;;;;;;5035172;28;20183;-68
2023/12/18 00:28:46;;;;;;;12.90;9.30;;;2.60;99.90;;;;;;5035141;28;20170;-67
2023/12/18 00:31:12;;;;;;;14.50;11.37;;;2.60;99.90;;;;;;5035076;28;20202;-68
2023/12/18 00:33:37;;;;;;;12.50;10.30;;;2.60;99.90;;;;;;5035342;28;20170;-67
2023/12/18 00:36:04;;;;;;;12.83;11.13;;;2.60;99.90;;;;;;5035127;28;20262;-68
2023/12/18 00:38:30;;;;;;;11.43;10.23;;;2.60;99.90;;;;;;5035090;28;20249;-67
2023/12/18 00:40:56;;;;;;;13.93;10.73;;;2.50;99.90;;;;;;5035097;28;20491;-68
2023/12/18 00:43:21;;;;;;;12.40;10.20;;;2.50;99.90;;;;;;5035129;28;20572;-68
2023/12/18 00:45:47;;;;;;;13.43;12.03;;;2.50;99.90;;;;;;5034863;28;20420;-68
2023/12/18 00:48:12;;;;;;;14.13;11.63;;;2.50;99.90;;;;;;5034543;28;20249;-67
2023/12/18 00:50:38;;;;;;;13.30;10.70;;;2.50;99.90;;;;;;5034738;28;20220;-67
2023/12/18 00:53:04;;;;;;;15.50;11.47;;;2.50;99.90;;;;;;5034801;28;20171;-67
2023/12/18 00:55:29;;;;;;;15.30;13.53;;;2.60;99.90;;;;;;5033601;28;20632;-67
2023/12/18 00:57:55;;;;;;;13.83;11.50;;;2.60;99.90;;;;;;5034453;28;20170;-67
2023/12/18 01:00:21;;;;;;;13.40;11.30;;;2.60;99.90;;;;;;5034619;28;20179;-68
2023/12/18 01:02:47;;;;;;;11.00;9.90;;;2.60;99.90;;;;;;5034473;28;20210;-67
2023/12/18 01:05:14;;;;;;;12.67;11.37;;;2.60;99.90;;;;;;5034749;28;20175;-67
2023/12/18 01:07:41;;;;;;;9.33;8.43;;;2.70;99.90;;;;;;5034256;28;20421;-68
2023/12/18 01:10:07;;;;;;;10.83;9.60;;;2.60;99.90;;;;;;5034578;28;20826;-68
2023/12/18 01:12:32;;;;;;;10.37;8.47;;;2.60;99.90;;;;;;5034289;28;21050;-67
2023/12/18 01:14:58;;;;;;;8.33;7.47;;;2.60;99.90;;;;;;5034337;28;20413;-67
2023/12/18 01:17:23;;;;;;;10.23;8.40;;;2.70;99.90;;;;;;5034011;28;20197;-67
2023/12/18 01:19:49;;;;;;;13.03;9.90;;;2.80;99.90;;;;;;5034398;28;20174;-67
2023/12/18 01:22:14;;;;;;;10.77;8.80;;;2.80;99.90;;;;;;5034112;28;20244;-67
2023/12/18 01:24:40;;;;;;;7.70;6.83;;;2.80;99.90;;;;;;5034286;28;20167;-68
2023/12/18 01:27:05;;;;;;;9.60;8.20;;;2.70;99.90;;;;;;5033916;28;20170;-68
2023/12/18 01:29:31;;;;;;;10.13;8.67;;;2.70;99.90;;;;;;5034017;28;20174;-68
2023/12/18 01:31:57;;;;;;;11.60;8.27;;;2.70;99.90;;;;;;5033997;28;20186;-68
2023/12/18 01:34:22;;;;;;;9.13;8.17;;;2.60;99.90;;;;;;5034110;28;20655;-69
2023/12/18 01:36:48;;;;;;;8.53;7.33;;;2.50;99.90;;;;;;5033812;28;20589;-69
2023/12/18 01:39:13;;;;;;;8.90;8.00;;;2.40;99.90;;;;;;5033939;28;20566;-68
2023/12/18 01:41:39;;;;;;;10.00;8.00;;;2.40;99.90;;;;;;5033949;28;20202;-68
2023/12/18 01:44:05;;;;;;;9.20;8.10;;;2.40;99.90;;;;;;5033963;28;20250;-68
2023/12/18 01:46:35;;;;;;;9.00;8.20;;;2.40;99.90;;;;;;5033750;28;20243;-68
2023/12/18 01:49:01;;;;;;;8.50;7.57;;;2.40;99.90;;;;;;5033812;28;20174;-69
2023/12/18 01:51:29;;;;;;;10.53;8.20;;;2.40;99.90;;;;;;5033723;28;20444;-68
2023/12/18 01:53:57;;;;;;;8.33;7.40;;;2.40;99.90;;;;;;5033742;28;20416;-68
2023/12/18 01:56:26;;;;;;;8.37;7.53;;;2.40;99.90;;;;;;5033416;28;20832;-69
2023/12/18 01:58:53;;;;;;;8.10;7.30;;;2.40;99.90;;;;;;5033589;28;20495;-68
2023/12/18 02:01:19;;;;;;;11.23;7.37;;;2.40;99.90;;;;;;5033414;28;20524;-68
2023/12/18 02:03:45;;;;;;;9.47;8.47;;;2.40;99.90;;;;;;5033540;28;20880;-68
2023/12/18 02:06:13;;;;;;;10.43;7.70;;;2.40;99.90;;;;;;5033454;28;20202;-68
2023/12/18 02:08:39;;;;;;;9.63;7.80;;;2.50;99.90;;;;;;5033310;28;20852;-69
2023/12/18 02:11:05;;;;;;;13.30;7.77;;;2.50;99.90;;;;;;5015780;28;20476;-68
2023/12/18 02:13:30;;;;;;;13.50;8.40;;;2.50;99.90;;;;;;5033217;28;20443;-68
2023/12/18 02:15:57;;;;;;;9.33;6.77;;;2.40;99.90;;;;;;5033207;28;20417;-68
2023/12/18 02:18:23;;;;;;;10.10;8.13;;;2.40;99.90;;;;;;5032989;28;20174;-68
2023/12/18 02:20:48;;;;;;;8.67;7.40;;;2.40;99.90;;;;;;5033149;28;20783;-68
2023/12/18 02:23:14;;;;;;;8.63;7.73;;;2.40;99.90;;;;;;5033104;28;20202;-68
2023/12/18 02:25:39;;;;;;;9.67;7.37;;;2.30;99.90;;;;;;5033037;28;20170;-68
2023/12/18 02:28:08;;;;;;;9.00;8.20;;;2.30;99.90;;;;;;5032775;28;20545;-68
2023/12/18 02:30:34;;;;;;;9.37;8.37;;;2.30;99.90;;;;;;5032946;28;20169;-68
2023/12/18 02:32:59;;;;;;;10.50;8.87;;;2.30;99.90;;;;;;5032860;28;20804;-68
2023/12/18 02:35:25;;;;;;;10.83;9.70;;;2.30;99.90;;;;;;5032877;28;20687;-68
2023/12/18 02:37:51;;;;;;;10.80;8.43;;;2.30;99.90;;;;;;5031663;28;20181;-68
2023/12/18 02:40:16;;;;;;;8.87;7.90;;;2.40;99.90;;;;;;5032321;28;20182;-68
2023/12/18 02:42:42;;;;;;;9.00;8.10;;;2.40;99.90;;;;;;5032664;28;20554;-68
2023/12/18 02:45:08;;;;;;;12.53;9.20;;;2.40;99.90;;;;;;5032655;28;20174;-68
2023/12/18 02:47:33;;;;;;;8.40;7.57;;;2.40;99.90;;;;;;5032502;28;20212;-68
2023/12/18 02:49:59;;;;;;;9.67;8.67;;;2.40;99.90;;;;;;5032689;28;20694;-68
2023/12/18 02:52:24;;;;;;;9.87;8.77;;;2.40;99.90;;;;;;5032457;28;20252;-68
2023/12/18 02:54:50;;;;;;;8.07;7.37;;;2.40;99.90;;;;;;5032557;28;20292;-68
2023/12/18 02:57:15;;;;;;;8.50;7.63;;;2.30;99.90;;;;;;5032217;28;20170;-68
2023/12/18 02:59:41;;;;;;;9.30;7.70;;;2.30;99.90;;;;;;5032597;28;20178;-68
2023/12/18 03:02:06;;;;;;;10.70;8.50;;;2.40;99.90;;;;;;5032304;28;20691;-68
2023/12/18 03:04:32;;;;;;;9.97;8.03;;;2.30;99.90;;;;;;5032519;28;20587;-68
2023/12/18 03:06:57;;;;;;;9.77;8.87;;;2.30;99.90;;;;;;5032129;28;20170;-68
2023/12/18 03:09:23;;;;;;;8.90;8.00;;;2.30;99.90;;;;;;5032305;28;20178;-69
2023/12/18 03:11:48;;;;;;;10.07;8.97;;;2.30;99.90;;;;;;5032391;28;20217;-68
2023/12/18 03:14:14;;;;;;;10.10;7.57;;;2.30;99.90;;;;;;5032404;28;20174;-68
2023/12/18 03:16:40;;;;;;;9.40;7.90;;;2.30;99.90;;;;;;5031940;28;20193;-67
2023/12/18 03:19:06;;;;;;;8.80;7.43;;;2.30;99.90;;;;;;5032182;28;20183;-68
2023/12/18 03:21:31;;;;;;;7.47;6.80;;;2.30;99.90;;;;;;5032132;28;21216;-68
2023/12/18 03:23:57;;;;;;;8.27;7.27;;;2.30;99.90;;;;;;5032052;28;20949;-67
2023/12/18 03:26:23;;;;;;;10.47;7.73;;;2.20;99.90;;;;;;5032123;28;20172;-68
2023/12/18 03:28:49;;;;;;;10.03;7.57;;;2.30;99.90;;;;;;5031896;28;20166;-68
2023/12/18 03:31:15;;;;;;;8.23;7.43;;;2.30;99.90;;;;;;5032111;28;20272;-68
2023/12/18 03:33:41;;;;;;;7.70;7.00;;;2.30;99.90;;;;;;5032045;28;21183;-68
2023/12/18 03:36:07;;;;;;;8.77;7.53;;;2.30;99.90;;;;;;5031897;28;20177;-68
2023/12/18 03:38:33;;;;;;;8.60;6.90;;;2.20;99.90;;;;;;5031659;28;20413;-68
2023/12/18 03:40:59;;;;;;;7.40;6.67;;;2.20;99.90;;;;;;5031899;28;20490;-68
2023/12/18 03:43:25;;;;;;;7.37;6.67;;;2.20;99.90;;;;;;5032002;28;20212;-68
2023/12/18 03:45:51;;;;;;;8.10;6.40;;;2.10;99.90;;;;;;5032019;28;20488;-68
2023/12/18 03:48:18;;;;;;;8.93;7.20;;;2.00;99.90;;;;;;5031601;28;20958;-68
2023/12/18 03:50:43;;;;;;;6.57;5.90;;;2.10;99.90;;;;;;5031811;28;20170;-68
2023/12/18 03:53:09;;;;;;;7.10;5.90;;;2.00;99.90;;;;;;5033969;28;20425;-68
2023/12/18 03:55:35;;;;;;;6.90;6.30;;;2.00;99.90;;;;;;5034763;28;20632;-68
2023/12/18 03:58:00;;;;;;;6.27;5.70;;;2.00;99.90;;;;;;5035711;28;20205;-68
2023/12/18 04:00:27;;;;;;;7.13;6.40;;;2.10;99.90;;;;;;5035929;28;20534;-68
2023/12/18 04:02:52;;;;;;;7.10;5.57;;;2.10;99.90;;;;;;5035596;28;20205;-68
2023/12/18 04:05:18;;;;;;;7.10;6.20;;;2.10;99.90;;;;;;5035662;28;20420;-68
2023/12/18 04:07:43;;;;;;;7.47;5.53;;;2.10;99.90;;;;;;5035230;28;20536;-68
2023/12/18 04:10:09;;;;;;;7.37;6.63;;;2.10;99.90;;;;;;5035613;28;20249;-68
2023/12/18 04:12:35;;;;;;;6.30;5.70;;;2.00;99.90;;;;;;5035478;28;20221;-68
2023/12/18 04:15:01;;;;;;;6.50;5.90;;;2.10;99.90;;;;;;5035621;28;20416;-68
2023/12/18 04:17:26;;;;;;;6.93;6.23;;;2.10;99.90;;;;;;5035336;28;20188;-68
2023/12/18 04:19:52;;;;;;;5.73;5.23;;;2.20;99.90;;;;;;5035507;28;20179;-68
2023/12/18 04:22:17;;;;;;;6.57;5.70;;;2.20;99.90;;;;;;5035200;28;20244;-68
2023/12/18 04:24:43;;;;;;;5.77;5.23;;;2.20;99.90;;;;;;5035270;28;20188;-68
2023/12/18 04:27:09;;;;;;;5.53;5.03;;;2.20;99.90;;;;;;5034955;28;20166;-68
2023/12/18 04:29:34;;;;;;;5.73;4.80;;;2.20;99.90;;;;;;5035154;28;20162;-68
2023/12/18 04:32:00;;;;;;;7.27;5.67;;;2.30;99.90;;;;;;5035033;28;20657;-68
2023/12/18 04:34:25;;;;;;;5.63;5.00;;;2.30;99.90;;;;;;5035100;28;20180;-68
2023/12/18 04:36:51;;;;;;;6.87;6.17;;;2.30;99.90;;;;;;5034664;28;20166;-68
2023/12/18 04:39:16;;;;;;;5.70;5.10;;;2.30;99.90;;;;;;5034961;28;20539;-68
2023/12/18 04:41:43;;;;;;;6.37;5.53;;;2.30;99.90;;;;;;5034869;28;20202;-68
2023/12/18 04:44:08;;;;;;;6.10;5.50;;;2.30;99.90;;;;;;5034966;28;20258;-68
2023/12/18 04:46:37;;;;;;;4.80;4.33;;;2.20;99.90;;;;;;5034730;28;20507;-68
2023/12/18 04:49:04;;;;;;;7.37;6.37;;;2.20;99.90;;;;;;5034892;28;20166;-68
2023/12/18 04:51:29;;;;;;;6.23;5.63;;;2.20;99.90;;;;;;5034632;28;20425;-68
2023/12/18 04:53:56;;;;;;;7.37;6.70;;;2.20;99.90;;;;;;5034822;28;20412;-68
2023/12/18 04:56:22;;;;;;;6.03;5.40;;;2.10;99.90;;;;;;5034687;28;20535;-68
2023/12/18 04:58:47;;;;;;;5.97;5.47;;;2.10;99.90;;;;;;5034664;28;20425;-68
2023/12/18 05:01:13;;;;;;;6.93;6.07;;;2.10;99.90;;;;;;5034526;28;20433;-69
2023/12/18 05:03:39;;;;;;;6.00;5.20;;;2.00;99.90;;;;;;5029932;28;20198;-68
2023/12/18 05:06:04;;;;;;;6.20;5.57;;;2.00;99.90;;;;;;5019116;28;20547;-68
2023/12/18 05:08:30;;;;;;;5.87;5.10;;;2.00;99.90;;;;;;5022984;28;20190;-68
2023/12/18 05:10:55;;;;;;;7.13;5.20;;;2.00;99.90;;;;;;5025299;28;20170;-68
2023/12/18 05:13:21;;;;;;;6.47;5.83;;;1.90;99.90;;;;;;5023975;28;20607;-67
2023/12/18 05:15:51;;;;;;;5.97;5.47;;;1.90;99.90;;;;;;5023728;28;20178;-67
2023/12/18 05:18:16;;;;;;;5.60;5.00;;;1.90;99.90;;;;;;5021816;28;20218;-67
2023/12/18 05:20:42;;;;;;;5.90;5.40;;;1.80;99.90;;;;;;5024258;28;20440;-67
2023/12/18 05:23:07;;;;;;;6.87;6.17;;;1.80;99.90;;;;;;5024731;28;20191;-68
2023/12/18 05:25:33;;;;;;;6.43;4.93;;;1.80;99.90;;;;;;5022856;28;20251;-68
2023/12/18 05:27:58;;;;;;;7.20;5.60;;;1.80;99.90;;;;;;5024317;28;20759;-68
2023/12/18 05:30:24;;;;;;;9.50;8.47;;;1.80;99.90;;;;;;5024188;28;20178;-68
2023/12/18 05:32:49;;;;;;;7.37;6.53;;;1.80;99.90;;;;;;5027726;28;20198;-67
2023/12/18 05:35:15;;;;;;;6.23;5.73;;;1.70;99.90;;;;;;5033774;28;20186;-67
2023/12/18 05:37:40;;;;;;;6.73;5.60;;;1.70;99.90;;;;;;5033705;28;20178;-67
2023/12/18 05:40:06;;;;;;;6.60;6.00;;;1.70;99.90;;;;;;5033975;28;20648;-68
2023/12/18 05:42:32;;;;;;;6.73;6.10;;;1.70;99.90;;;;;;5033686;28;20240;-68
2023/12/18 05:44:57;;;;;;;7.90;6.93;;;1.70;99.90;;;;;;5033805;28;20496;-68
2023/12/18 05:47:23;;;;;;;6.67;6.07;;;1.70;99.90;;;;;;5033568;28;20170;-67
2023/12/18 05:49:48;;;;;;;7.77;6.97;;;1.60;99.90;;;;;;5033770;28;20174;-67
2023/12/18 05:52:14;;;;;;;6.53;5.93;;;1.60;99.90;;;;;;5033663;28;20272;-67
2023/12/18 05:54:39;;;;;;;10.33;6.67;;;1.70;99.90;;;;;;5033600;28;20182;-68
2023/12/18 05:57:05;;;;;;;7.03;6.40;;;1.70;99.90;;;;;;5033343;28;20228;-69
2023/12/18 05:59:31;;;;;;;8.70;7.17;;;1.70;99.90;;;;;;5033515;28;20297;-67
2023/12/18 06:01:57;;;;;;;9.07;7.10;;;1.70;99.90;;;;;;5033546;28;21240;-69
2023/12/18 06:04:22;;;;;;;6.47;5.97;;;1.80;99.90;;;;;;5033625;28;20543;-69
2023/12/18 06:06:48;;;;;;;9.70;6.40;;;1.70;99.90;;;;;;5033156;28;20206;-69
2023/12/18 06:09:14;;;;;;;7.93;7.23;;;1.70;99.90;;;;;;5033571;28;20175;-69
2023/12/18 06:11:39;;;;;;;8.30;7.43;;;1.80;99.90;;;;;;5052924;22;20220;-65
2023/12/18 06:14:05;;;;;;;7.77;7.07;;;1.70;99.90;;;;;;5073082;28;20427;-65
2023/12/18 06:16:30;;;;;;;7.17;6.53;;;1.70;99.90;;;;;;5072061;28;20407;-66
2023/12/18 06:18:59;;;;;;;8.10;7.30;;;1.70;99.90;;;;;;5073116;28;20206;-66
2023/12/18 06:21:24;;;;;;;9.50;8.00;;;1.70;99.90;;;;;;5070681;28;20173;-66
2023/12/18 06:23:50;;;;;;;8.67;6.33;;;1.70;99.90;;;;;;5052967;28;20833;-66
2023/12/18 06:26:15;;;;;;;8.97;6.83;;;1.70;99.90;;;;;;5052904;28;20320;-66
2023/12/18 06:28:41;;;;;;;8.20;6.67;;;1.70;99.90;;;;;;5052759;28;20170;-65
2023/12/18 06:31:07;;;;;;;9.13;6.60;;;1.70;99.90;;;;;;5052870;28;20638;-65
2023/12/18 06:33:32;;;;;;;8.13;7.20;;;1.70;99.90;;;;;;5052749;28;20678;-66
2023/12/18 06:35:58;;;;;;;6.63;6.07;;;1.70;99.90;;;;;;5052858;28;20419;-65
2023/12/18 06:38:23;;;;;;;7.90;7.17;;;1.70;99.90;;;;;;5052492;28;20658;-66
2023/12/18 06:40:49;;;;;;;11.87;8.63;;;1.70;99.90;;;;;;5052763;28;20268;-65
2023/12/18 06:43:14;;;;;;;10.80;8.57;;;1.70;99.90;;;;;;5052578;28;20213;-66
2023/12/18 06:45:40;;;;;;;8.37;7.57;;;1.70;99.90;;;;;;5052763;28;20165;-66
2023/12/18 06:48:05;;;;;;;10.30;8.57;;;1.60;99.90;;;;;;5052423;28;20216;-66
2023/12/18 06:50:31;;;;;;;10.30;8.90;;;1.60;99.90;;;;;;5052624;28;20662;-66
2023/12/18 06:52:59;;;;;;;9.17;8.27;;;1.70;99.90;;;;;;5052405;28;20252;-66
2023/12/18 06:55:24;;;;;;;15.83;13.27;;;1.70;99.90;;;;;;5052467;28;20545;-65
2023/12/18 06:57:50;;;;;;;11.07;9.97;;;1.70;99.90;;;;;;5052391;28;20423;-66
2023/12/18 07:00:16;;;;;;;11.03;8.30;;;1.70;99.90;;;;;;5052481;28;20650;-66
2023/12/18 07:02:41;;;;;;;12.70;9.37;;;1.70;99.90;;;;;;5071071;28;20735;-65
2023/12/18 07:05:07;;;;;;;12.13;9.97;;;1.70;99.90;;;;;;5072282;28;20164;-65
2023/12/18 07:07:32;;;;;;;14.93;9.63;;;1.60;99.90;;;;;;5071987;28;20169;-65
2023/12/18 07:09:58;;;;;;;13.70;11.13;;;1.60;99.90;;;;;;5072176;28;20206;-65
2023/12/18 07:12:24;;;;;;;14.00;12.50;;;1.60;99.90;;;;;;5072085;28;20266;-68
2023/12/18 07:14:49;;;;;;;19.20;14.43;;;1.70;99.90;;;;;;5070768;28;20172;-67
2023/12/18 07:17:15;;;;;;;18.80;13.67;;;1.70;99.90;;;;;;5051890;28;20243;-74
2023/12/18 07:19:40;;;;;;;14.27;11.60;;;1.70;99.90;;;;;;5051741;28;20173;-72
2023/12/18 07:22:06;;;;;;;15.83;13.33;;;1.80;99.90;;;;;;5051869;28;20198;-74
2023/12/18 07:24:31;;;;;;;13.03;11.43;;;1.90;99.90;;;;;;5050854;28;20223;-68
2023/12/18 07:26:57;;;;;;;14.63;12.10;;;2.00;99.90;;;;;;5050930;28;20181;-68
2023/12/18 07:29:22;;;;;;;15.93;11.43;;;2.00;99.90;;;;;;5050831;28;20820;-68
2023/12/18 07:31:48;;;;;;;13.00;11.37;;;2.00;99.90;;;;;;5050137;28;20186;-68
2023/12/18 07:34:13;;;;;;;14.80;12.17;;;1.90;99.90;;;;;;5050140;28;20212;-68
2023/12/18 07:36:40;;;;;;;12.87;11.20;;;1.90;99.90;;;;;;5050352;28;20554;-69
2023/12/18 07:39:06;;;;;;;13.40;11.57;;;1.90;99.90;;;;;;5050158;28;20177;-69
2023/12/18 07:41:32;;;;;;;14.30;11.30;;;1.90;99.90;;;;;;5051526;28;20574;-66
2023/12/18 07:43:57;;;;;;;11.63;10.43;;;1.90;99.90;;;;;;5051718;28;20532;-67
2023/12/18 07:46:23;;;;;;;11.30;10.13;;;1.90;99.90;;;;;;5051672;28;20185;-66
2023/12/18 07:48:49;;;;;;;25.30;18.73;;;2.00;99.90;;;;;;5051747;28;20181;-66
2023/12/18 07:51:15;;;;;;;16.40;13.80;;;2.40;99.90;;;;;;5047438;28;20318;-66
2023/12/18 07:53:41;;;;;;;17.50;15.60;;;3.00;99.90;;;;;;5051295;28;20522;-66
2023/12/18 07:56:07;;;;;;;19.60;14.77;;;3.70;99.90;;;;;;5051508;28;20252;-66
2023/12/18 07:58:33;;;;;;;15.80;13.27;;;4.40;99.90;;;;;;5051291;28;20170;-67
2023/12/18 08:00:58;;;;;;;15.37;13.77;;;5.10;99.90;;;;;;5051370;28;20697;-66
2023/12/18 08:03:24;;;;;;;19.07;14.67;;;6.10;99.90;;;;;;5047960;28;20220;-67
2023/12/18 08:05:50;;;;;;;15.83;14.27;;;7.20;99.90;;;;;;5051043;28;20695;-67
2023/12/18 08:08:15;;;;;;;15.90;13.80;;;8.20;99.90;;;;;;5051014;28;20189;-68
2023/12/18 08:10:42;;;;;;;16.40;12.90;;;9.10;99.90;;;;;;5051556;28;20172;-65
2023/12/18 08:13:08;;;;;;;18.57;14.03;;;9.70;99.90;;;;;;5051430;28;20266;-64
2023/12/18 08:15:33;;;;;;;16.40;14.70;;;10.30;99.90;;;;;;5051544;28;20420;-67
2023/12/18 08:17:59;;;;;;;15.17;13.57;;;10.70;99.90;;;;;;5051116;28;20181;-67
2023/12/18 08:20:24;;;;;;;16.87;15.10;;;11.60;99.90;;;;;;5047235;28;20195;-64
2023/12/18 08:22:50;;;;;;;16.23;14.60;;;12.00;99.90;;;;;;5050475;28;20320;-67
2023/12/18 08:25:15;;;;;;;16.90;15.20;;;13.00;99.90;;;;;;5051301;28;20180;-67
2023/12/18 08:27:41;;;;;;;15.80;14.30;;;14.00;96.90;;;;;;5050977;28;20224;-67
2023/12/18 08:30:11;;;;;;;16.57;14.97;;;14.20;91.60;;;;;;5051279;28;20174;-67
2023/12/18 08:32:38;;;;;;;15.80;14.30;;;14.50;91.30;;;;;;5051150;28;20560;-68
2023/12/18 08:35:05;;;;;;;14.83;13.33;;;15.10;87.20;;;;;;5051084;28;20787;-67
2023/12/18 08:37:31;;;;;;;19.70;17.60;;;15.80;83.70;;;;;;5050323;28;20861;-65
2023/12/18 08:39:56;;;;;;;17.50;15.63;;;16.70;75.40;;;;;;5054400;28;20428;-65
2023/12/18 08:42:22;;;;;;;19.83;17.73;;;16.80;70.20;;;;;;5054709;28;20205;-65
2023/12/18 08:44:48;;;;;;;16.17;14.63;;;16.60;71.20;;;;;;5054839;28;20177;-67
2023/12/18 08:47:14;;;;;;;16.37;14.90;;;17.30;67.60;;;;;;5054231;28;20189;-65
2023/12/18 08:49:39;;;;;;;15.93;14.40;;;18.00;64.30;;;;;;5054731;28;20182;-65
2023/12/18 08:52:05;;;;;;;16.83;15.10;;;18.30;59.80;;;;;;5054343;28;20590;-65
2023/12/18 08:54:31;;;;;;;14.30;13.00;;;18.90;58.50;;;;;;5054752;28;20216;-65
2023/12/18 08:56:56;;;;;;;12.93;11.80;;;18.10;56.30;;;;;;5054323;28;20185;-65
2023/12/18 08:59:22;;;;;;;11.57;10.60;;;16.40;58.40;;;;;;5054498;28;20223;-65
2023/12/18 09:01:48;;;;;;;12.40;11.20;;;15.90;61.20;;;;;;5054290;28;20237;-65
2023/12/18 09:04:13;;;;;;;11.47;10.47;;;15.50;65.10;;;;;;5054348;28;20174;-65
2023/12/18 09:06:39;;;;;;;10.47;9.60;;;17.00;62.70;;;;;;5053805;28;20174;-65
2023/12/18 09:09:05;;;;;;;12.47;11.47;;;18.20;58.50;;;;;;5054447;28;20166;-65
2023/12/18 09:11:33;;;;;;;13.50;12.20;;;19.50;55.20;;;;;;5050143;28;20674;-66
2023/12/18 09:14:00;;;;;;;12.37;11.30;;;19.90;53.40;;;;;;5034334;28;20158;-65
2023/12/18 09:16:26;;;;;;;12.53;11.43;;;20.20;52.70;;;;;;5034008;28;20413;-65
2023/12/18 09:18:52;;;;;;;12.30;11.10;;;20.40;48.90;;;;;;5034053;28;20423;-65
2023/12/18 09:21:18;;;;;;;11.20;10.30;;;19.70;49.80;;;;;;5034247;28;20429;-65
2023/12/18 09:23:44;;;;;;;12.40;11.40;;;19.50;48.80;;;;;;5034102;28;20210;-65
2023/12/18 09:26:12;;;;;;;11.60;10.50;;;19.90;49.70;;;;;;5034050;28;20675;-65
2023/12/18 09:28:38;;;;;;;12.23;11.20;;;20.80;47.40;;;;;;5033799;28;20504;-65
2023/12/18 09:31:05;;;;;;;11.87;10.77;;;21.80;46.00;;;;;;5033966;28;20507;-65
2023/12/18 09:33:33;;;;;;;11.10;10.03;;;22.50;44.00;;;;;;5033764;28;20332;-65
2023/12/18 09:35:59;;;;;;;11.00;10.10;;;22.90;42.10;;;;;;5035395;28;21117;-65
2023/12/18 09:38:25;;;;;;;11.27;10.20;;;23.00;41.20;;;;;;5053104;28;20447;-65
2023/12/18 09:40:50;;;;;;;10.27;9.33;;;22.70;39.90;;;;;;5053727;28;21049;-65
2023/12/18 09:43:17;;;;;;;10.87;10.07;;;22.80;40.10;;;;;;5053559;28;20212;-65
2023/12/18 09:45:46;;;;;;;9.30;8.60;;;22.30;38.90;;;;;;5053645;28;20224;-67
2023/12/18 09:48:12;;;;;;;10.93;10.20;;;20.80;40.30;;;;;;5053128;28;20509;-67
2023/12/18 09:50:38;;;;;;;13.33;11.43;;;20.40;40.20;;;;;;5052469;28;20454;-66
2023/12/18 09:53:08;;;;;;;10.93;10.00;;;18.30;43.20;;;;;;5053429;28;20619;-66
2023/12/18 09:55:34;;;;;;;11.43;10.30;;;18.20;45.80;;;;;;5053590;28;20252;-66
2023/12/18 09:58:00;;;;;;;12.90;11.80;;;18.90;44.80;;;;;;5051907;28;20416;-66
2023/12/18 10:00:27;;;;;;;11.13;10.13;;;20.00;43.80;;;;;;5053177;28;20415;-68
2023/12/18 10:02:55;;;;;;;12.40;10.13;;;19.90;42.60;;;;;;5053012;28;20464;-66
2023/12/18 10:05:20;;;;;;;11.50;10.40;;;18.70;43.70;;;;;;5053651;28;20795;-66
2023/12/18 10:07:46;;;;;;;12.83;11.70;;;18.80;43.30;;;;;;5053114;28;20416;-69
2023/12/18 10:10:12;;;;;;;13.80;11.47;;;19.30;44.10;;;;;;5053262;28;20162;-66
2023/12/18 10:12:38;;;;;;;12.10;11.00;;;20.80;43.00;;;;;;5052709;28;20259;-66
2023/12/18 10:15:06;;;;;;;14.20;12.07;;;21.90;40.50;;;;;;5053066;28;20161;-66
2023/12/18 10:17:33;;;;;;;12.80;11.47;;;22.90;38.20;;;;;;5052717;28;20420;-66
2023/12/18 10:20:02;;;;;;;12.23;11.00;;;21.90;38.60;;;;;;5053001;28;20975;-67
2023/12/18 10:22:28;;;;;;;13.00;11.90;;;23.20;38.40;;;;;;5051562;28;20826;-67
2023/12/18 10:24:56;;;;;;;11.17;10.30;;;24.60;36.80;;;;;;5052931;28;20506;-66
2023/12/18 10:27:22;;;;;;;11.07;10.27;;;24.70;34.60;;;;;;5052625;28;20630;-66
2023/12/18 10:29:47;;;;;;;11.80;10.60;;;23.90;36.40;;;;;;5052491;28;20503;-67
2023/12/18 10:32:13;;;;;;;11.57;10.63;;;24.70;35.10;;;;;;5052524;28;20238;-66
2023/12/18 10:34:39;;;;;;;9.83;9.00;;;25.60;33.60;;;;;;5051394;28;20210;-66
2023/12/18 10:37:05;;;;;;;11.23;10.10;;;25.90;32.60;;;;;;5050171;28;20604;-66
2023/12/18 10:39:35;;;;;;;11.07;9.97;;;26.10;32.10;;;;;;5051131;28;20177;-66
2023/12/18 10:42:05;;;;;;;9.97;9.07;;;24.50;33.30;;;;;;5050861;28;20607;-66
2023/12/18 10:44:33;;;;;;;8.40;7.20;;;24.30;33.10;;;;;;5050823;28;20443;-66
2023/12/18 10:47:00;;;;;;;9.07;8.07;;;25.40;32.50;;;;;;5050545;28;20448;-67
2023/12/18 10:49:28;;;;;;;9.07;8.27;;;26.00;31.70;;;;;;5049623;28;20423;-68
2023/12/18 10:51:56;;;;;;;6.20;5.60;;;26.90;31.00;;;;;;5049425;28;20791;-68
2023/12/18 10:54:24;;;;;;;7.60;7.00;;;26.50;29.30;;;;;;5049230;28;20480;-67
2023/12/18 10:56:51;;;;;;;6.57;6.07;;;24.40;31.40;;;;;;5050169;28;20412;-67
2023/12/18 10:59:19;;;;;;;7.20;6.30;;;22.60;32.90;;;;;;5048454;28;20868;-67
2023/12/18 11:01:45;;;;;;;6.50;5.90;;;21.70;34.30;;;;;;5045373;28;20448;-67
2023/12/18 11:04:12;;;;;;;6.87;6.37;;;21.20;36.00;;;;;;5046237;28;20432;-67
2023/12/18 11:06:39;;;;;;;6.00;5.50;;;21.80;35.70;;;;;;5047767;28;20181;-67
2023/12/18 11:09:05;;;;;;;4.80;4.50;;;22.30;34.80;;;;;;5050464;28;20436;-67
2023/12/18 11:11:32;;;;;;;4.87;4.47;;;22.40;34.20;;;;;;5047763;28;20517;-66
2023/12/18 11:14:38;;;;;;;4.30;4.00;;;23.80;33.60;;;;;;5051249;28;20215;-66
2023/12/18 11:17:29;;;;;;;6.03;4.10;;;25.60;32.10;;;;;;5017144;28;20479;-66
2023/12/18 11:20:16;;;;;;;4.20;3.90;;;26.80;30.00;;;;;;5050531;28;20420;-66
2023/12/18 11:22:45;;;;;;;4.07;3.77;;;27.70;29.20;;;;;;5051440;28;20911;-67
2023/12/18 11:25:11;;;;;;;4.07;3.77;;;28.70;28.20;;;;;;5051908;28;20539;-66
2023/12/18 11:27:39;;;;;;;4.60;4.20;;;29.20;27.30;;;;;;5051682;28;20416;-66
2023/12/18 11:30:21;;;;;;;4.37;4.07;;;29.30;26.80;;;;;;5052142;28;20447;-66
2023/12/18 11:32:46;;;;;;;4.43;4.13;;;29.60;26.60;;;;;;5052027;28;20818;-66
2023/12/18 11:35:13;;;;;;;5.50;4.97;;;30.50;26.00;;;;;;5052003;28;20421;-66
2023/12/18 11:37:46;;;;;;;5.80;4.70;;;30.60;25.70;;;;;;5050453;28;20170;-66
2023/12/18 11:40:31;;;;;;;4.90;4.60;;;30.70;24.90;;;;;;5049491;28;20423;-66
2023/12/18 11:42:59;;;;;;;4.90;4.50;;;31.40;24.20;;;;;;5051720;28;20478;-66
2023/12/18 11:45:26;;;;;;;4.33;4.03;;;31.70;23.80;;;;;;5051772;28;20439;-66
2023/12/18 11:47:52;;;;;;;4.77;4.37;;;31.40;23.30;;;;;;5051339;28;20423;-66
2023/12/18 11:50:24;;;;;;;4.63;4.33;;;32.40;23.20;;;;;;5051966;28;20413;-66
2023/12/18 11:52:53;;;;;;;4.63;4.30;;;32.00;23.10;;;;;;5051788;28;20444;-66
2023/12/18 11:55:37;;;;;;;5.70;5.23;;;31.60;23.10;;;;;;5051439;28;20447;-67
2023/12/18 11:58:03;;;;;;;6.27;5.77;;;31.20;23.60;;;;;;5051519;28;20442;-67
2023/12/18 12:00:37;;;;;;;5.90;5.50;;;31.90;23.30;;;;;;5051736;28;20423;-66
2023/12/18 12:03:03;;;;;;;6.03;5.53;;;32.70;23.00;;;;;;5051458;28;20463;-66
2023/12/18 12:05:31;;;;;;;5.43;5.03;;;33.10;22.50;;;;;;5051569;28;20431;-66
2023/12/18 12:07:57;;;;;;;6.73;6.20;;;33.10;22.30;;;;;;5051376;28;20412;-66
2023/12/18 12:10:23;;;;;;;6.00;5.60;;;33.60;22.10;;;;;;5051869;28;20489;-66
2023/12/18 12:12:58;;;;;;;7.33;6.83;;;33.90;21.10;;;;;;5052179;28;20212;-66
2023/12/18 12:15:24;;;;;;;8.93;8.33;;;33.40;21.50;;;;;;5055528;28;20169;-66
2023/12/18 12:18:05;;;;;;;10.33;9.53;;;33.30;21.50;;;;;;5055146;28;20427;-66
2023/12/18 12:20:31;;;;;;;11.80;10.80;;;31.90;22.30;;;;;;5055461;28;20765;-66
2023/12/18 12:22:57;;;;;;;12.30;11.37;;;32.10;22.10;;;;;;5055301;28;20608;-66
2023/12/18 12:25:23;;;;;;;13.37;12.20;;;32.20;22.00;;;;;;5055373;28;20426;-66
2023/12/18 12:27:49;;;;;;;11.97;10.73;;;32.00;21.80;;;;;;5054994;28;20223;-66
2023/12/18 12:30:16;;;;;;;10.23;9.33;;;31.90;22.20;;;;;;5055204;28;20580;-66
2023/12/18 12:32:42;;;;;;;11.77;10.77;;;32.80;21.70;;;;;;5055169;28;20436;-67
2023/12/18 12:35:08;;;;;;;15.70;11.03;;;32.70;21.40;;;;;;5055240;28;20541;-67
2023/12/18 12:37:33;;;;;;;11.93;10.73;;;32.30;21.50;;;;;;5054978;28;20223;-67
2023/12/18 12:40:07;;;;;;;13.60;11.00;;;32.00;21.70;;;;;;5055170;28;20178;-66
2023/12/18 12:42:36;;;;;;;11.90;10.87;;;31.30;21.90;;;;;;5054946;28;20284;-66